Portada
METAR-TAF:

METAR-TAF

Aeroports :

Munda, New Georgia, Illes Salomó

latitud: 8-19-41S, longitud: 157-15-47E, altitud: 3 m

Observació

L'informe es va fer fa 12 minuts, a les 04:00 UTC
Vent 8 kt del Oest
Temperatura 28°C
Humitat 84%
Pressió 1006 hPa
Visibilitat 10 km o més
Escasses núvols a una alçada de 1800 ft
Núvols disperses a una alçada de 2800 ft
Cel ennuvolat a una alçada de 30000 ft

METAR: AGGM 200400Z 27008KT 9999 FEW018 SCT028 BKN300 28/25 Q1006

Hora: 15:12 (04:12 UTC)

Pronòstic

L'informe es va fer fa 5 hores i 2 minuts, a les 23:10 UTC
Pronòstic vàlid del 20 a les 00 UTC al 20 a les 24 UTC
Vent 12 kt del Oest
Visibilitat: 1007 m
Núvols disperses a una alçada de 2000 ft
Núvols disperses a una alçada de 3500 ft
Cel ennuvolat a una alçada de 1500 ft
Escasses núvols a una alçada de 1600 ft, Cumulonimbus.

TAF: AGGM 192310Z 2000/2024 27012KT 9999 SCT020 SCT035 INTER 2000/2007 5000 TSSH BKN015 FEW016CB Q 1007 1005 1005 1007

Observacions i pronòstics meteorològics de més de 4000 aeroports (METAR i TAF).

Les estacions disponibles són els punts grocs i vermells al mapa.

Posi el ratolí al punt desitjat per veure el nom de l'estació.

Feu clic per veure les observacions i els pronòstics meteorològics.

Per canviar el mapa: feu clic els botons verds amb una creu de color negre per apropar; al botó verd amb un guió per allunyar la imatge; o en les fletxes verdes per a mapes adjacents.


METAR-TAF: